International Virtual Aviation Organisation

Russian Federation and Kazakhstan MCD

 
UUEE 041300Z 14004MPS 9000 OVC011 M04/M06 Q1032 R06R/410151 R06L/410151 NOSIG
QNH:(hPa/inHg/mmHg)1032 / 30.47 / 774
QFE:(hPa/inHg/mmHg)1009 / 29.79 / 757
Temperature-4
Dew Point-6
Visibility9000
Weather
Cloud CoverOVC (1100);
Transition Altitude10000 ft.
Transition LevelFL110
SQUAWK